sensor_id;sensor_type;location;lat;lon;timestamp;P1;durP1;ratioP1;P2;durP2;ratioP2
15358;SDS011;7779;49.596;11.070;2023-05-07T00:00:12;2.00;;;1.63;;
15358;SDS011;7779;49.596;11.070;2023-05-07T00:02:40;1.80;;;1.50;;
15358;SDS011;7779;49.596;11.070;2023-05-07T00:05:06;1.50;;;1.40;;
15358;SDS011;7779;49.596;11.070;2023-05-07T00:07:32;1.90;;;1.67;;
15358;SDS011;7779;49.596;11.070;2023-05-07T00:09:58;1.50;;;1.40;;
15358;SDS011;7779;49.596;11.070;2023-05-07T00:12:23;2.03;;;1.60;;
15358;SDS011;7779;49.596;11.070;2023-05-07T00:14:50;1.60;;;1.50;;
15358;SDS011;7779;49.596;11.070;2023-05-07T00:17:16;1.97;;;1.50;;
15358;SDS011;7779;49.596;11.070;2023-05-07T00:19:41;1.53;;;1.40;;
15358;SDS011;7779;49.596;11.070;2023-05-07T00:22:07;1.27;;;1.17;;
15358;SDS011;7779;49.596;11.070;2023-05-07T00:24:33;1.93;;;1.40;;
15358;SDS011;7779;49.596;11.070;2023-05-07T00:26:59;3.33;;;1.50;;
15358;SDS011;7779;49.596;11.070;2023-05-07T00:29:25;1.80;;;1.20;;
15358;SDS011;7779;49.596;11.070;2023-05-07T00:31:51;1.70;;;1.50;;
15358;SDS011;7779;49.596;11.070;2023-05-07T00:34:18;1.33;;;1.23;;
15358;SDS011;7779;49.596;11.070;2023-05-07T00:36:44;1.43;;;1.27;;
15358;SDS011;7779;49.596;11.070;2023-05-07T00:39:10;2.10;;;1.57;;
15358;SDS011;7779;49.596;11.070;2023-05-07T00:41:36;1.67;;;1.40;;
15358;SDS011;7779;49.596;11.070;2023-05-07T00:44:03;1.60;;;1.30;;
15358;SDS011;7779;49.596;11.070;2023-05-07T00:46:29;1.50;;;1.40;;
15358;SDS011;7779;49.596;11.070;2023-05-07T00:48:57;1.73;;;1.50;;
15358;SDS011;7779;49.596;11.070;2023-05-07T00:51:25;2.40;;;1.37;;
15358;SDS011;7779;49.596;11.070;2023-05-07T00:53:52;1.47;;;1.37;;
15358;SDS011;7779;49.596;11.070;2023-05-07T00:56:20;2.00;;;1.50;;
15358;SDS011;7779;49.596;11.070;2023-05-07T00:58:47;1.70;;;1.30;;
15358;SDS011;7779;49.596;11.070;2023-05-07T01:01:13;1.83;;;1.40;;
15358;SDS011;7779;49.596;11.070;2023-05-07T01:03:41;1.50;;;1.40;;
15358;SDS011;7779;49.596;11.070;2023-05-07T01:06:08;2.07;;;1.27;;
15358;SDS011;7779;49.596;11.070;2023-05-07T01:08:37;1.70;;;1.30;;
15358;SDS011;7779;49.596;11.070;2023-05-07T01:11:07;1.90;;;1.70;;
15358;SDS011;7779;49.596;11.070;2023-05-07T01:13:34;1.83;;;1.50;;
15358;SDS011;7779;49.596;11.070;2023-05-07T01:16:02;1.60;;;1.50;;
15358;SDS011;7779;49.596;11.070;2023-05-07T01:18:28;1.67;;;1.50;;
15358;SDS011;7779;49.596;11.070;2023-05-07T01:20:58;1.60;;;1.50;;
15358;SDS011;7779;49.596;11.070;2023-05-07T01:23:28;2.00;;;1.40;;
15358;SDS011;7779;49.596;11.070;2023-05-07T01:25:55;2.07;;;1.53;;
15358;SDS011;7779;49.596;11.070;2023-05-07T01:28:24;2.10;;;1.80;;
15358;SDS011;7779;49.596;11.070;2023-05-07T01:30:51;2.10;;;1.67;;
15358;SDS011;7779;49.596;11.070;2023-05-07T01:33:21;1.70;;;1.60;;
15358;SDS011;7779;49.596;11.070;2023-05-07T01:35:50;2.53;;;1.80;;
15358;SDS011;7779;49.596;11.070;2023-05-07T01:38:18;1.83;;;1.67;;
15358;SDS011;7779;49.596;11.070;2023-05-07T01:40:47;2.27;;;1.70;;
15358;SDS011;7779;49.596;11.070;2023-05-07T01:43:13;1.87;;;1.60;;
15358;SDS011;7779;49.596;11.070;2023-05-07T01:45:40;1.87;;;1.70;;
15358;SDS011;7779;49.596;11.070;2023-05-07T01:48:07;2.77;;;1.67;;
15358;SDS011;7779;49.596;11.070;2023-05-07T01:50:35;1.83;;;1.70;;
15358;SDS011;7779;49.596;11.070;2023-05-07T01:53:02;1.93;;;1.60;;
15358;SDS011;7779;49.596;11.070;2023-05-07T01:55:28;2.53;;;2.00;;
15358;SDS011;7779;49.596;11.070;2023-05-07T01:57:54;2.23;;;1.97;;
15358;SDS011;7779;49.596;11.070;2023-05-07T02:00:20;2.00;;;1.80;;
15358;SDS011;7779;49.596;11.070;2023-05-07T02:02:46;2.10;;;1.90;;
15358;SDS011;7779;49.596;11.070;2023-05-07T02:05:24;2.80;;;2.60;;
15358;SDS011;7779;49.596;11.070;2023-05-07T02:08:05;2.40;;;2.00;;
15358;SDS011;7779;49.596;11.070;2023-05-07T02:10:30;2.17;;;1.97;;
15358;SDS011;7779;49.596;11.070;2023-05-07T02:12:57;2.10;;;2.00;;
15358;SDS011;7779;49.596;11.070;2023-05-07T02:15:24;4.23;;;2.20;;
15358;SDS011;7779;49.596;11.070;2023-05-07T02:17:58;3.27;;;2.10;;
15358;SDS011;7779;49.596;11.070;2023-05-07T02:20:26;2.60;;;2.40;;
15358;SDS011;7779;49.596;11.070;2023-05-07T02:22:52;2.23;;;2.03;;
15358;SDS011;7779;49.596;11.070;2023-05-07T02:25:18;2.30;;;2.10;;
15358;SDS011;7779;49.596;11.070;2023-05-07T02:27:44;2.27;;;2.07;;
15358;SDS011;7779;49.596;11.070;2023-05-07T02:30:11;2.67;;;2.47;;
15358;SDS011;7779;49.596;11.070;2023-05-07T02:32:37;2.50;;;2.30;;
15358;SDS011;7779;49.596;11.070;2023-05-07T02:35:02;4.77;;;2.80;;
15358;SDS011;7779;49.596;11.070;2023-05-07T02:37:30;2.73;;;2.47;;
15358;SDS011;7779;49.596;11.070;2023-05-07T02:39:56;2.67;;;2.47;;
15358;SDS011;7779;49.596;11.070;2023-05-07T02:42:22;2.67;;;2.43;;
15358;SDS011;7779;49.596;11.070;2023-05-07T02:44:47;2.50;;;2.30;;
15358;SDS011;7779;49.596;11.070;2023-05-07T02:47:14;2.80;;;2.60;;
15358;SDS011;7779;49.596;11.070;2023-05-07T02:49:41;2.43;;;2.30;;
15358;SDS011;7779;49.596;11.070;2023-05-07T02:52:07;2.80;;;2.60;;
15358;SDS011;7779;49.596;11.070;2023-05-07T02:54:33;3.13;;;2.83;;
15358;SDS011;7779;49.596;11.070;2023-05-07T02:56:59;2.60;;;2.40;;
15358;SDS011;7779;49.596;11.070;2023-05-07T02:59:26;4.23;;;3.03;;
15358;SDS011;7779;49.596;11.070;2023-05-07T03:01:52;2.50;;;2.30;;
15358;SDS011;7779;49.596;11.070;2023-05-07T03:04:18;3.03;;;2.73;;
15358;SDS011;7779;49.596;11.070;2023-05-07T03:06:44;3.27;;;2.80;;
15358;SDS011;7779;49.596;11.070;2023-05-07T03:09:09;3.50;;;2.90;;
15358;SDS011;7779;49.596;11.070;2023-05-07T03:11:35;3.30;;;2.90;;
15358;SDS011;7779;49.596;11.070;2023-05-07T03:14:01;3.33;;;3.07;;
15358;SDS011;7779;49.596;11.070;2023-05-07T03:16:27;3.63;;;3.13;;
15358;SDS011;7779;49.596;11.070;2023-05-07T03:18:53;3.57;;;3.27;;
15358;SDS011;7779;49.596;11.070;2023-05-07T03:21:18;3.33;;;3.03;;
15358;SDS011;7779;49.596;11.070;2023-05-07T03:23:44;4.40;;;3.27;;
15358;SDS011;7779;49.596;11.070;2023-05-07T03:26:10;3.77;;;3.30;;
15358;SDS011;7779;49.596;11.070;2023-05-07T03:28:36;3.87;;;3.27;;
15358;SDS011;7779;49.596;11.070;2023-05-07T03:31:05;3.17;;;2.87;;
15358;SDS011;7779;49.596;11.070;2023-05-07T03:33:35;4.10;;;3.20;;
15358;SDS011;7779;49.596;11.070;2023-05-07T03:36:16;3.47;;;3.17;;
15358;SDS011;7779;49.596;11.070;2023-05-07T03:38:42;3.30;;;3.00;;
15358;SDS011;7779;49.596;11.070;2023-05-07T03:41:08;3.60;;;3.00;;
15358;SDS011;7779;49.596;11.070;2023-05-07T03:43:34;3.40;;;3.07;;
15358;SDS011;7779;49.596;11.070;2023-05-07T03:46:05;3.80;;;3.07;;
15358;SDS011;7779;49.596;11.070;2023-05-07T03:48:31;3.90;;;3.47;;
15358;SDS011;7779;49.596;11.070;2023-05-07T03:50:58;3.50;;;3.20;;
15358;SDS011;7779;49.596;11.070;2023-05-07T03:53:28;3.60;;;3.30;;
15358;SDS011;7779;49.596;11.070;2023-05-07T03:55:53;3.43;;;3.13;;
15358;SDS011;7779;49.596;11.070;2023-05-07T03:58:19;3.40;;;3.10;;
15358;SDS011;7779;49.596;11.070;2023-05-07T04:00:45;4.43;;;3.30;;
15358;SDS011;7779;49.596;11.070;2023-05-07T04:03:19;3.23;;;2.90;;
15358;SDS011;7779;49.596;11.070;2023-05-07T04:05:44;3.10;;;2.90;;
15358;SDS011;7779;49.596;11.070;2023-05-07T04:08:10;3.83;;;3.17;;
15358;SDS011;7779;49.596;11.070;2023-05-07T04:10:40;3.30;;;2.80;;
15358;SDS011;7779;49.596;11.070;2023-05-07T04:13:09;3.33;;;3.00;;
15358;SDS011;7779;49.596;11.070;2023-05-07T04:15:35;2.90;;;2.63;;
15358;SDS011;7779;49.596;11.070;2023-05-07T04:18:04;3.83;;;2.70;;
15358;SDS011;7779;49.596;11.070;2023-05-07T04:20:30;3.30;;;3.00;;
15358;SDS011;7779;49.596;11.070;2023-05-07T04:23:01;3.40;;;3.07;;
15358;SDS011;7779;49.596;11.070;2023-05-07T04:25:27;3.33;;;2.57;;
15358;SDS011;7779;49.596;11.070;2023-05-07T04:28:00;3.07;;;2.80;;
15358;SDS011;7779;49.596;11.070;2023-05-07T04:30:28;3.00;;;2.70;;
15358;SDS011;7779;49.596;11.070;2023-05-07T04:32:53;3.30;;;3.00;;
15358;SDS011;7779;49.596;11.070;2023-05-07T04:35:21;3.30;;;3.00;;
15358;SDS011;7779;49.596;11.070;2023-05-07T04:37:47;3.63;;;2.77;;
15358;SDS011;7779;49.596;11.070;2023-05-07T04:40:13;3.50;;;3.10;;
15358;SDS011;7779;49.596;11.070;2023-05-07T04:42:41;3.43;;;3.13;;
15358;SDS011;7779;49.596;11.070;2023-05-07T04:45:07;4.00;;;3.60;;
15358;SDS011;7779;49.596;11.070;2023-05-07T04:47:36;4.00;;;3.50;;
15358;SDS011;7779;49.596;11.070;2023-05-07T04:50:02;4.57;;;3.60;;
15358;SDS011;7779;49.596;11.070;2023-05-07T04:52:28;3.83;;;3.53;;
15358;SDS011;7779;49.596;11.070;2023-05-07T04:54:53;3.87;;;3.47;;
15358;SDS011;7779;49.596;11.070;2023-05-07T04:57:19;4.03;;;3.67;;
15358;SDS011;7779;49.596;11.070;2023-05-07T04:59:45;3.80;;;3.50;;
15358;SDS011;7779;49.596;11.070;2023-05-07T05:02:11;4.00;;;3.70;;
15358;SDS011;7779;49.596;11.070;2023-05-07T05:04:37;4.07;;;3.77;;
15358;SDS011;7779;49.596;11.070;2023-05-07T05:07:03;4.37;;;3.97;;
15358;SDS011;7779;49.596;11.070;2023-05-07T05:09:30;4.53;;;4.13;;
15358;SDS011;7779;49.596;11.070;2023-05-07T05:11:56;4.57;;;4.17;;
15358;SDS011;7779;49.596;11.070;2023-05-07T05:14:22;5.60;;;4.20;;
15358;SDS011;7779;49.596;11.070;2023-05-07T05:16:49;4.30;;;3.87;;
15358;SDS011;7779;49.596;11.070;2023-05-07T05:19:14;4.43;;;4.03;;
15358;SDS011;7779;49.596;11.070;2023-05-07T05:21:42;3.83;;;3.53;;
15358;SDS011;7779;49.596;11.070;2023-05-07T05:24:09;4.30;;;3.90;;
15358;SDS011;7779;49.596;11.070;2023-05-07T05:26:35;4.57;;;4.07;;
15358;SDS011;7779;49.596;11.070;2023-05-07T05:29:01;4.20;;;3.90;;
15358;SDS011;7779;49.596;11.070;2023-05-07T05:31:28;4.53;;;4.00;;
15358;SDS011;7779;49.596;11.070;2023-05-07T05:33:54;4.60;;;4.20;;
15358;SDS011;7779;49.596;11.070;2023-05-07T05:36:20;4.97;;;4.53;;
15358;SDS011;7779;49.596;11.070;2023-05-07T05:38:48;4.60;;;4.20;;
15358;SDS011;7779;49.596;11.070;2023-05-07T05:41:13;5.27;;;4.30;;
15358;SDS011;7779;49.596;11.070;2023-05-07T05:43:39;5.07;;;4.57;;
15358;SDS011;7779;49.596;11.070;2023-05-07T05:46:05;6.13;;;4.53;;
15358;SDS011;7779;49.596;11.070;2023-05-07T05:48:31;5.17;;;4.67;;
15358;SDS011;7779;49.596;11.070;2023-05-07T05:50:59;4.43;;;4.03;;
15358;SDS011;7779;49.596;11.070;2023-05-07T05:53:25;4.87;;;4.27;;
15358;SDS011;7779;49.596;11.070;2023-05-07T05:55:51;6.73;;;4.30;;
15358;SDS011;7779;49.596;11.070;2023-05-07T05:58:17;4.67;;;4.27;;
15358;SDS011;7779;49.596;11.070;2023-05-07T06:00:49;4.47;;;4.07;;
15358;SDS011;7779;49.596;11.070;2023-05-07T06:03:17;4.83;;;4.30;;
15358;SDS011;7779;49.596;11.070;2023-05-07T06:05:44;4.40;;;4.00;;
15358;SDS011;7779;49.596;11.070;2023-05-07T06:08:10;4.67;;;4.27;;
15358;SDS011;7779;49.596;11.070;2023-05-07T06:10:36;4.57;;;4.07;;
15358;SDS011;7779;49.596;11.070;2023-05-07T06:13:04;6.20;;;4.30;;
15358;SDS011;7779;49.596;11.070;2023-05-07T06:15:31;5.43;;;4.93;;
15358;SDS011;7779;49.596;11.070;2023-05-07T06:18:02;4.50;;;4.10;;
15358;SDS011;7779;49.596;11.070;2023-05-07T06:20:28;4.27;;;3.87;;
15358;SDS011;7779;49.596;11.070;2023-05-07T06:22:55;5.13;;;4.20;;
15358;SDS011;7779;49.596;11.070;2023-05-07T06:25:21;4.60;;;4.20;;
15358;SDS011;7779;49.596;11.070;2023-05-07T06:27:47;4.37;;;3.97;;
15358;SDS011;7779;49.596;11.070;2023-05-07T06:30:12;4.37;;;3.73;;
15358;SDS011;7779;49.596;11.070;2023-05-07T06:32:39;4.33;;;3.93;;
15358;SDS011;7779;49.596;11.070;2023-05-07T06:35:07;4.57;;;4.17;;
15358;SDS011;7779;49.596;11.070;2023-05-07T06:37:36;4.37;;;3.97;;
15358;SDS011;7779;49.596;11.070;2023-05-07T06:40:05;5.17;;;3.63;;
15358;SDS011;7779;49.596;11.070;2023-05-07T06:42:35;4.40;;;3.93;;
15358;SDS011;7779;49.596;11.070;2023-05-07T06:45:20;4.60;;;4.17;;
15358;SDS011;7779;49.596;11.070;2023-05-07T06:47:46;4.43;;;3.60;;
15358;SDS011;7779;49.596;11.070;2023-05-07T06:50:11;4.20;;;3.83;;
15358;SDS011;7779;49.596;11.070;2023-05-07T06:52:37;5.70;;;4.10;;
15358;SDS011;7779;49.596;11.070;2023-05-07T06:55:05;4.03;;;3.73;;
15358;SDS011;7779;49.596;11.070;2023-05-07T06:57:31;5.63;;;4.23;;
15358;SDS011;7779;49.596;11.070;2023-05-07T06:59:57;3.93;;;3.53;;
15358;SDS011;7779;49.596;11.070;2023-05-07T07:02:23;5.37;;;4.07;;
15358;SDS011;7779;49.596;11.070;2023-05-07T07:04:49;4.57;;;4.17;;
15358;SDS011;7779;49.596;11.070;2023-05-07T07:07:15;4.37;;;3.97;;
15358;SDS011;7779;49.596;11.070;2023-05-07T07:09:44;4.47;;;4.07;;
15358;SDS011;7779;49.596;11.070;2023-05-07T07:12:12;4.37;;;3.97;;
15358;SDS011;7779;49.596;11.070;2023-05-07T07:14:39;4.17;;;3.77;;
15358;SDS011;7779;49.596;11.070;2023-05-07T07:17:05;4.40;;;4.00;;
15358;SDS011;7779;49.596;11.070;2023-05-07T07:19:31;4.47;;;4.07;;
15358;SDS011;7779;49.596;11.070;2023-05-07T07:21:57;4.67;;;4.23;;
15358;SDS011;7779;49.596;11.070;2023-05-07T07:24:23;4.43;;;3.50;;
15358;SDS011;7779;49.596;11.070;2023-05-07T07:26:54;4.60;;;4.00;;
15358;SDS011;7779;49.596;11.070;2023-05-07T07:29:21;3.90;;;3.60;;
15358;SDS011;7779;49.596;11.070;2023-05-07T07:31:48;3.97;;;3.67;;
15358;SDS011;7779;49.596;11.070;2023-05-07T07:34:15;5.73;;;3.73;;
15358;SDS011;7779;49.596;11.070;2023-05-07T07:36:41;3.83;;;3.53;;
15358;SDS011;7779;49.596;11.070;2023-05-07T07:39:07;4.73;;;3.37;;
15358;SDS011;7779;49.596;11.070;2023-05-07T07:41:33;3.83;;;3.50;;
15358;SDS011;7779;49.596;11.070;2023-05-07T07:43:59;3.83;;;3.53;;
15358;SDS011;7779;49.596;11.070;2023-05-07T07:46:25;5.00;;;3.70;;
15358;SDS011;7779;49.596;11.070;2023-05-07T07:48:53;3.83;;;3.53;;
15358;SDS011;7779;49.596;11.070;2023-05-07T07:51:19;4.13;;;3.73;;
15358;SDS011;7779;49.596;11.070;2023-05-07T07:53:45;3.57;;;3.27;;
15358;SDS011;7779;49.596;11.070;2023-05-07T07:56:11;3.93;;;3.60;;
15358;SDS011;7779;49.596;11.070;2023-05-07T07:58:37;3.97;;;3.40;;
15358;SDS011;7779;49.596;11.070;2023-05-07T08:01:04;3.70;;;3.40;;
15358;SDS011;7779;49.596;11.070;2023-05-07T08:03:30;3.90;;;3.60;;
15358;SDS011;7779;49.596;11.070;2023-05-07T08:05:57;3.43;;;3.13;;
15358;SDS011;7779;49.596;11.070;2023-05-07T08:08:24;4.90;;;3.70;;
15358;SDS011;7779;49.596;11.070;2023-05-07T08:10:51;3.43;;;3.13;;
15358;SDS011;7779;49.596;11.070;2023-05-07T08:13:24;3.40;;;3.10;;
15358;SDS011;7779;49.596;11.070;2023-05-07T08:15:50;3.53;;;3.23;;
15358;SDS011;7779;49.596;11.070;2023-05-07T08:18:16;2.87;;;2.67;;
15358;SDS011;7779;49.596;11.070;2023-05-07T08:20:43;4.27;;;3.50;;
15358;SDS011;7779;49.596;11.070;2023-05-07T08:23:14;3.43;;;3.13;;
15358;SDS011;7779;49.596;11.070;2023-05-07T08:25:40;3.73;;;3.43;;
15358;SDS011;7779;49.596;11.070;2023-05-07T08:28:08;3.70;;;3.23;;
15358;SDS011;7779;49.596;11.070;2023-05-07T08:30:34;3.70;;;3.40;;
15358;SDS011;7779;49.596;11.070;2023-05-07T08:33:00;3.57;;;3.07;;
15358;SDS011;7779;49.596;11.070;2023-05-07T08:35:25;3.80;;;3.50;;
15358;SDS011;7779;49.596;11.070;2023-05-07T08:37:52;3.50;;;3.20;;
15358;SDS011;7779;49.596;11.070;2023-05-07T08:40:19;3.43;;;3.13;;
15358;SDS011;7779;49.596;11.070;2023-05-07T08:42:50;3.97;;;3.57;;
15358;SDS011;7779;49.596;11.070;2023-05-07T08:45:18;4.00;;;3.10;;
15358;SDS011;7779;49.596;11.070;2023-05-07T08:47:51;3.57;;;3.27;;
15358;SDS011;7779;49.596;11.070;2023-05-07T08:50:26;3.40;;;3.10;;
15358;SDS011;7779;49.596;11.070;2023-05-07T08:52:52;3.57;;;3.27;;
15358;SDS011;7779;49.596;11.070;2023-05-07T08:55:20;4.10;;;3.20;;
15358;SDS011;7779;49.596;11.070;2023-05-07T08:57:46;3.03;;;2.80;;
15358;SDS011;7779;49.596;11.070;2023-05-07T09:00:13;3.80;;;3.20;;
15358;SDS011;7779;49.596;11.070;2023-05-07T09:02:41;3.87;;;3.50;;
15358;SDS011;7779;49.596;11.070;2023-05-07T09:05:08;3.50;;;3.20;;
15358;SDS011;7779;49.596;11.070;2023-05-07T09:07:35;3.77;;;3.47;;
15358;SDS011;7779;49.596;11.070;2023-05-07T09:10:04;3.70;;;3.40;;
15358;SDS011;7779;49.596;11.070;2023-05-07T09:12:32;3.00;;;2.80;;
15358;SDS011;7779;49.596;11.070;2023-05-07T09:15:00;3.47;;;3.17;;
15358;SDS011;7779;49.596;11.070;2023-05-07T09:17:28;3.40;;;3.10;;
15358;SDS011;7779;49.596;11.070;2023-05-07T09:19:54;4.30;;;3.57;;
15358;SDS011;7779;49.596;11.070;2023-05-07T09:22:20;3.40;;;3.10;;
15358;SDS011;7779;49.596;11.070;2023-05-07T09:24:56;4.73;;;3.00;;
15358;SDS011;7779;49.596;11.070;2023-05-07T09:27:24;3.40;;;3.10;;
15358;SDS011;7779;49.596;11.070;2023-05-07T09:29:52;3.10;;;2.90;;
15358;SDS011;7779;49.596;11.070;2023-05-07T09:32:18;2.90;;;2.70;;
15358;SDS011;7779;49.596;11.070;2023-05-07T09:34:44;3.67;;;3.37;;
15358;SDS011;7779;49.596;11.070;2023-05-07T09:37:12;3.83;;;3.43;;
15358;SDS011;7779;49.596;11.070;2023-05-07T09:39:44;3.43;;;3.13;;
15358;SDS011;7779;49.596;11.070;2023-05-07T09:42:13;3.40;;;3.10;;
15358;SDS011;7779;49.596;11.070;2023-05-07T09:44:43;3.50;;;3.20;;
15358;SDS011;7779;49.596;11.070;2023-05-07T09:47:16;3.27;;;3.07;;
15358;SDS011;7779;49.596;11.070;2023-05-07T09:49:48;3.20;;;3.00;;
15358;SDS011;7779;49.596;11.070;2023-05-07T09:52:18;3.07;;;2.77;;
15358;SDS011;7779;49.596;11.070;2023-05-07T09:54:49;3.60;;;3.23;;
15358;SDS011;7779;49.596;11.070;2023-05-07T09:57:18;3.97;;;3.20;;
15358;SDS011;7779;49.596;11.070;2023-05-07T09:59:49;3.07;;;2.87;;
15358;SDS011;7779;49.596;11.070;2023-05-07T10:02:19;3.20;;;2.90;;
15358;SDS011;7779;49.596;11.070;2023-05-07T10:04:49;3.73;;;3.10;;
15358;SDS011;7779;49.596;11.070;2023-05-07T10:07:20;2.87;;;2.67;;
15358;SDS011;7779;49.596;11.070;2023-05-07T10:09:52;3.30;;;3.00;;
15358;SDS011;7779;49.596;11.070;2023-05-07T10:12:27;2.80;;;2.60;;
15358;SDS011;7779;49.596;11.070;2023-05-07T10:14:54;4.00;;;3.20;;
15358;SDS011;7779;49.596;11.070;2023-05-07T10:17:21;3.27;;;2.97;;
15358;SDS011;7779;49.596;11.070;2023-05-07T10:19:48;2.93;;;2.73;;
15358;SDS011;7779;49.596;11.070;2023-05-07T10:22:17;2.97;;;2.77;;
15358;SDS011;7779;49.596;11.070;2023-05-07T10:24:45;2.97;;;2.73;;
15358;SDS011;7779;49.596;11.070;2023-05-07T10:27:19;3.60;;;2.70;;
15358;SDS011;7779;49.596;11.070;2023-05-07T10:29:54;2.83;;;2.63;;
15358;SDS011;7779;49.596;11.070;2023-05-07T10:32:59;2.87;;;2.67;;
15358;SDS011;7779;49.596;11.070;2023-05-07T10:35:32;3.03;;;2.83;;
15358;SDS011;7779;49.596;11.070;2023-05-07T10:38:09;3.00;;;2.80;;
15358;SDS011;7779;49.596;11.070;2023-05-07T10:40:38;2.77;;;2.57;;
15358;SDS011;7779;49.596;11.070;2023-05-07T10:43:06;2.80;;;2.60;;
15358;SDS011;7779;49.596;11.070;2023-05-07T10:45:38;2.70;;;2.50;;
15358;SDS011;7779;49.596;11.070;2023-05-07T10:48:06;2.87;;;2.67;;
15358;SDS011;7779;49.596;11.070;2023-05-07T10:50:37;3.13;;;2.33;;
15358;SDS011;7779;49.596;11.070;2023-05-07T10:55:50;2.70;;;2.50;;
15358;SDS011;7779;49.596;11.070;2023-05-07T10:58:43;2.80;;;2.60;;
15358;SDS011;7779;49.596;11.070;2023-05-07T11:01:17;2.70;;;2.50;;
15358;SDS011;7779;49.596;11.070;2023-05-07T11:04:24;2.70;;;2.50;;
15358;SDS011;7779;49.596;11.070;2023-05-07T11:15:11;3.53;;;3.10;;
15358;SDS011;7779;49.596;11.070;2023-05-07T11:18:02;2.30;;;2.10;;
15358;SDS011;7779;49.596;11.070;2023-05-07T11:20:50;2.40;;;2.20;;
15358;SDS011;7779;49.596;11.070;2023-05-07T11:26:23;2.10;;;2.00;;
15358;SDS011;7779;49.596;11.070;2023-05-07T11:28:50;3.20;;;2.30;;
15358;SDS011;7779;49.596;11.070;2023-05-07T11:31:22;2.73;;;2.50;;
15358;SDS011;7779;49.596;11.070;2023-05-07T11:33:51;2.50;;;2.30;;
15358;SDS011;7779;49.596;11.070;2023-05-07T11:36:21;2.83;;;2.50;;
15358;SDS011;7779;49.596;11.070;2023-05-07T11:38:51;2.17;;;2.00;;
15358;SDS011;7779;49.596;11.070;2023-05-07T11:41:17;1.90;;;1.80;;
15358;SDS011;7779;49.596;11.070;2023-05-07T11:43:54;2.50;;;2.30;;
15358;SDS011;7779;49.596;11.070;2023-05-07T11:46:24;2.50;;;2.20;;
15358;SDS011;7779;49.596;11.070;2023-05-07T11:48:52;2.57;;;2.30;;
15358;SDS011;7779;49.596;11.070;2023-05-07T11:51:18;2.30;;;2.10;;
15358;SDS011;7779;49.596;11.070;2023-05-07T11:53:46;2.60;;;2.00;;
15358;SDS011;7779;49.596;11.070;2023-05-07T11:56:12;2.27;;;2.07;;
15358;SDS011;7779;49.596;11.070;2023-05-07T11:58:41;2.40;;;2.20;;
15358;SDS011;7779;49.596;11.070;2023-05-07T12:01:09;2.40;;;2.20;;
15358;SDS011;7779;49.596;11.070;2023-05-07T12:03:39;2.40;;;2.20;;
15358;SDS011;7779;49.596;11.070;2023-05-07T12:06:11;2.43;;;2.23;;
15358;SDS011;7779;49.596;11.070;2023-05-07T12:08:40;2.50;;;2.30;;
15358;SDS011;7779;49.596;11.070;2023-05-07T12:11:08;2.40;;;2.20;;
15358;SDS011;7779;49.596;11.070;2023-05-07T12:13:38;2.63;;;2.40;;
15358;SDS011;7779;49.596;11.070;2023-05-07T12:16:05;2.80;;;2.60;;
15358;SDS011;7779;49.596;11.070;2023-05-07T12:18:32;2.37;;;2.17;;
15358;SDS011;7779;49.596;11.070;2023-05-07T12:21:00;2.30;;;2.10;;
15358;SDS011;7779;49.596;11.070;2023-05-07T12:23:27;4.10;;;2.20;;
15358;SDS011;7779;49.596;11.070;2023-05-07T12:25:54;2.40;;;2.13;;
15358;SDS011;7779;49.596;11.070;2023-05-07T12:28:19;2.37;;;2.17;;
15358;SDS011;7779;49.596;11.070;2023-05-07T12:30:46;2.10;;;1.90;;
15358;SDS011;7779;49.596;11.070;2023-05-07T12:33:18;2.10;;;2.00;;
15358;SDS011;7779;49.596;11.070;2023-05-07T12:35:49;2.67;;;2.10;;
15358;SDS011;7779;49.596;11.070;2023-05-07T12:38:15;2.37;;;1.97;;
15358;SDS011;7779;49.596;11.070;2023-05-07T12:40:44;2.23;;;2.10;;
15358;SDS011;7779;49.596;11.070;2023-05-07T12:43:18;2.27;;;2.07;;
15358;SDS011;7779;49.596;11.070;2023-05-07T12:45:46;2.23;;;2.03;;
15358;SDS011;7779;49.596;11.070;2023-05-07T12:48:14;2.27;;;2.07;;
15358;SDS011;7779;49.596;11.070;2023-05-07T12:50:40;1.80;;;1.70;;
15358;SDS011;7779;49.596;11.070;2023-05-07T12:53:07;2.27;;;2.07;;
15358;SDS011;7779;49.596;11.070;2023-05-07T12:55:49;2.63;;;1.97;;
15358;SDS011;7779;49.596;11.070;2023-05-07T12:58:18;2.17;;;1.73;;
15358;SDS011;7779;49.596;11.070;2023-05-07T13:00:48;2.77;;;2.10;;
15358;SDS011;7779;49.596;11.070;2023-05-07T13:03:26;1.73;;;1.63;;
15358;SDS011;7779;49.596;11.070;2023-05-07T13:05:56;2.10;;;1.97;;
15358;SDS011;7779;49.596;11.070;2023-05-07T13:11:03;2.00;;;1.87;;
15358;SDS011;7779;49.596;11.070;2023-05-07T13:13:30;1.80;;;1.70;;
15358;SDS011;7779;49.596;11.070;2023-05-07T13:15:56;2.23;;;1.63;;
15358;SDS011;7779;49.596;11.070;2023-05-07T13:18:24;2.07;;;1.90;;
15358;SDS011;7779;49.596;11.070;2023-05-07T13:20:51;1.90;;;1.80;;
15358;SDS011;7779;49.596;11.070;2023-05-07T13:23:18;1.83;;;1.73;;
15358;SDS011;7779;49.596;11.070;2023-05-07T13:25:43;1.90;;;1.80;;
15358;SDS011;7779;49.596;11.070;2023-05-07T13:28:09;2.10;;;1.87;;
15358;SDS011;7779;49.596;11.070;2023-05-07T13:30:35;1.83;;;1.70;;
15358;SDS011;7779;49.596;11.070;2023-05-07T13:33:01;2.30;;;2.10;;
15358;SDS011;7779;49.596;11.070;2023-05-07T13:35:26;1.73;;;1.63;;
15358;SDS011;7779;49.596;11.070;2023-05-07T13:37:53;2.63;;;1.90;;
15358;SDS011;7779;49.596;11.070;2023-05-07T13:40:20;1.90;;;1.80;;
15358;SDS011;7779;49.596;11.070;2023-05-07T13:42:47;1.70;;;1.60;;
15358;SDS011;7779;49.596;11.070;2023-05-07T13:45:13;2.10;;;1.80;;
15358;SDS011;7779;49.596;11.070;2023-05-07T13:47:43;2.00;;;1.70;;
15358;SDS011;7779;49.596;11.070;2023-05-07T13:50:09;2.17;;;1.90;;
15358;SDS011;7779;49.596;11.070;2023-05-07T13:52:36;1.73;;;1.63;;
15358;SDS011;7779;49.596;11.070;2023-05-07T13:55:03;2.50;;;1.93;;
15358;SDS011;7779;49.596;11.070;2023-05-07T13:57:29;1.60;;;1.50;;
15358;SDS011;7779;49.596;11.070;2023-05-07T13:59:55;2.23;;;1.80;;
15358;SDS011;7779;49.596;11.070;2023-05-07T14:02:20;1.97;;;1.77;;
15358;SDS011;7779;49.596;11.070;2023-05-07T14:04:46;2.10;;;1.90;;
15358;SDS011;7779;49.596;11.070;2023-05-07T14:07:12;1.87;;;1.77;;
15358;SDS011;7779;49.596;11.070;2023-05-07T14:09:37;1.67;;;1.57;;
15358;SDS011;7779;49.596;11.070;2023-05-07T14:12:03;2.20;;;1.80;;
15358;SDS011;7779;49.596;11.070;2023-05-07T14:14:30;1.60;;;1.50;;
15358;SDS011;7779;49.596;11.070;2023-05-07T14:16:56;1.67;;;1.57;;
15358;SDS011;7779;49.596;11.070;2023-05-07T14:19:22;1.53;;;1.43;;
15358;SDS011;7779;49.596;11.070;2023-05-07T14:21:48;1.50;;;1.40;;
15358;SDS011;7779;49.596;11.070;2023-05-07T14:24:14;1.50;;;1.40;;
15358;SDS011;7779;49.596;11.070;2023-05-07T14:26:40;1.63;;;1.53;;
15358;SDS011;7779;49.596;11.070;2023-05-07T14:29:06;1.43;;;1.30;;
15358;SDS011;7779;49.596;11.070;2023-05-07T14:31:31;1.40;;;1.30;;
15358;SDS011;7779;49.596;11.070;2023-05-07T14:33:58;1.47;;;1.37;;
15358;SDS011;7779;49.596;11.070;2023-05-07T14:36:24;1.50;;;1.40;;
15358;SDS011;7779;49.596;11.070;2023-05-07T14:38:53;1.70;;;1.60;;
15358;SDS011;7779;49.596;11.070;2023-05-07T14:41:20;1.30;;;1.20;;
15358;SDS011;7779;49.596;11.070;2023-05-07T14:43:47;1.40;;;1.30;;
15358;SDS011;7779;49.596;11.070;2023-05-07T14:46:17;1.60;;;1.50;;
15358;SDS011;7779;49.596;11.070;2023-05-07T14:48:44;1.50;;;1.40;;
15358;SDS011;7779;49.596;11.070;2023-05-07T14:51:13;1.60;;;1.50;;
15358;SDS011;7779;49.596;11.070;2023-05-07T14:53:42;1.63;;;1.53;;
15358;SDS011;7779;49.596;11.070;2023-05-07T14:56:08;2.00;;;1.50;;
15358;SDS011;7779;49.596;11.070;2023-05-07T14:58:34;1.50;;;1.30;;
15358;SDS011;7779;49.596;11.070;2023-05-07T15:01:00;1.50;;;1.40;;
15358;SDS011;7779;49.596;11.070;2023-05-07T15:03:26;1.60;;;1.43;;
15358;SDS011;7779;49.596;11.070;2023-05-07T15:05:53;1.50;;;1.40;;
15358;SDS011;7779;49.596;11.070;2023-05-07T15:08:18;1.60;;;1.50;;